หน้าหลัก
METAR-TAF:

METAR-TAF

ท่าอากาศยาน :

Perry Stokes Airport

Trinidad, โคโลราโด, สหรัฐอเมริกา

ละติจูด: 37-16N, ลองจิจูด: 104-26W, ความสูง: 1756 ม.

การสังเกตสภาพอากาศปัจจุบัน

รายงานได้ทำขึ้นเมื่อ 47 นาทีที่แล้ว ณ เวลา 08:54 UTC
ลม 8 นอตจากตะวันตก/ตะวันตกเฉียงเหนือ
อุณหภูมิ 9°C
ความชื้น 66%
ความกดอากาศ 1012 hPa
ทัศนวิสัย: 16.1 กม.
ท้องฟ้าแจ่มใส

METAR: KTAD 260854Z AUTO 30008KT 10SM CLR 09/03 A2988 RMK AO2 SLP045 T00940028 53013

เวลา: 03:41 (09:41 UTC)


TAF: หายไป

สังเกตการณ์สภาพอากาศและพยากรณ์อากาศของสนามบินมากกว่า 4000 แห่ง (รายงาน METAR และ TAF).

สถานีที่ดูได้จะแสดงไว้ด้วยจุดสีเหลืองและสีแดงบนแผนที่.

เลื่อนเมาส์ไปเหนือจุดเพื่อดูชื่อสถานี.

แล้วคลิกเพื่อดูสังเกตการณ์และการพยากรณ์สภาพอากาศ.

ในการเปลี่ยนแผนที่: คลิกที่ปุ่มสีเขียวที่มีกากบาทสีดำเพื่อซูมเข้า; ที่ปุ่มสีเขียวที่มีขีดเพื่อซูมออก; หรือที่ลูกศรสีเขียวเพื่อไปยังแผนที่ที่อยู่ติดกัน.


METAR-TAF: